sensor_id;sensor_type;location;lat;lon;timestamp;pressure;altitude;pressure_sealevel;temperature;humidity
57791;BME280;43621;51.798;21.588;2022-12-31T00:01:42;100003.71;;;3.03;73.65
57791;BME280;43621;51.798;21.588;2022-12-31T00:05:44;100001.73;;;2.99;73.54
57791;BME280;43621;51.798;21.588;2022-12-31T00:09:46;100001.69;;;2.90;73.53
57791;BME280;43621;51.798;21.588;2022-12-31T00:13:50;100003.88;;;2.88;73.71
57791;BME280;43621;51.798;21.588;2022-12-31T00:17:52;100003.52;;;2.86;73.95
57791;BME280;43621;51.798;21.588;2022-12-31T00:21:54;100003.73;;;2.79;73.96
57791;BME280;43621;51.798;21.588;2022-12-31T00:26:01;100011.45;;;2.72;73.95
57791;BME280;43621;51.798;21.588;2022-12-31T00:30:03;100010.75;;;2.69;74.15
57791;BME280;43621;51.798;21.588;2022-12-31T00:34:06;99995.08;;;2.66;74.26
57791;BME280;43621;51.798;21.588;2022-12-31T00:38:07;99990.71;;;2.60;74.26
57791;BME280;43621;51.798;21.588;2022-12-31T00:42:09;99984.66;;;2.54;74.81
57791;BME280;43621;51.798;21.588;2022-12-31T00:46:12;99982.89;;;2.50;75.27
57791;BME280;43621;51.798;21.588;2022-12-31T00:50:14;99979.55;;;2.45;75.41
57791;BME280;43621;51.798;21.588;2022-12-31T00:54:16;99970.46;;;2.41;75.18
57791;BME280;43621;51.798;21.588;2022-12-31T00:58:18;99965.88;;;2.40;75.24
57791;BME280;43621;51.798;21.588;2022-12-31T01:02:20;99967.55;;;2.44;75.30
57791;BME280;43621;51.798;21.588;2022-12-31T01:06:22;99973.42;;;2.46;75.40
57791;BME280;43621;51.798;21.588;2022-12-31T01:10:24;99972.96;;;2.48;75.52
57791;BME280;43621;51.798;21.588;2022-12-31T01:14:44;99966.57;;;2.55;76.03
57791;BME280;43621;51.798;21.588;2022-12-31T01:18:47;99963.77;;;2.62;75.98
57791;BME280;43621;51.798;21.588;2022-12-31T01:22:49;99956.50;;;2.65;75.89
57791;BME280;43621;51.798;21.588;2022-12-31T01:26:51;99950.46;;;2.68;76.14
57791;BME280;43621;51.798;21.588;2022-12-31T01:30:53;99956.01;;;2.73;75.98
57791;BME280;43621;51.798;21.588;2022-12-31T01:34:55;99953.58;;;2.76;76.77
57791;BME280;43621;51.798;21.588;2022-12-31T01:38:58;99952.84;;;2.80;77.29
57791;BME280;43621;51.798;21.588;2022-12-31T01:43:01;99948.09;;;2.87;76.91
57791;BME280;43621;51.798;21.588;2022-12-31T01:47:04;99947.23;;;2.93;76.94
57791;BME280;43621;51.798;21.588;2022-12-31T01:51:08;99946.19;;;2.93;77.11
57791;BME280;43621;51.798;21.588;2022-12-31T01:59:13;99935.00;;;3.01;77.11
57791;BME280;43621;51.798;21.588;2022-12-31T02:03:19;99933.73;;;3.00;77.08
57791;BME280;43621;51.798;21.588;2022-12-31T02:07:23;99924.13;;;2.99;77.03
57791;BME280;43621;51.798;21.588;2022-12-31T02:11:28;99913.30;;;3.01;77.07
57791;BME280;43621;51.798;21.588;2022-12-31T02:15:56;99907.35;;;3.03;77.11
57791;BME280;43621;51.798;21.588;2022-12-31T02:33:26;99882.59;;;3.09;77.04
57791;BME280;43621;51.798;21.588;2022-12-31T02:37:32;99878.63;;;3.10;77.43
57791;BME280;43621;51.798;21.588;2022-12-31T02:41:36;99877.68;;;3.11;77.54
57791;BME280;43621;51.798;21.588;2022-12-31T02:46:19;99872.77;;;3.12;77.72
57791;BME280;43621;51.798;21.588;2022-12-31T02:59:00;99858.59;;;3.26;77.75
57791;BME280;43621;51.798;21.588;2022-12-31T03:03:26;99842.52;;;3.32;77.80
57791;BME280;43621;51.798;21.588;2022-12-31T03:07:30;99841.91;;;3.39;77.62
57791;BME280;43621;51.798;21.588;2022-12-31T03:11:33;99840.91;;;3.44;77.59
57791;BME280;43621;51.798;21.588;2022-12-31T03:15:53;99839.03;;;3.46;77.73
57791;BME280;43621;51.798;21.588;2022-12-31T03:19:55;99835.48;;;3.50;77.84
57791;BME280;43621;51.798;21.588;2022-12-31T03:24:15;99838.36;;;3.57;77.50
57791;BME280;43621;51.798;21.588;2022-12-31T03:28:41;99841.63;;;3.60;77.39
57791;BME280;43621;51.798;21.588;2022-12-31T03:32:44;99844.50;;;3.58;77.18
57791;BME280;43621;51.798;21.588;2022-12-31T03:36:47;99839.80;;;3.58;77.33
57791;BME280;43621;51.798;21.588;2022-12-31T03:40:50;99839.59;;;3.64;77.10
57791;BME280;43621;51.798;21.588;2022-12-31T03:44:52;99836.92;;;3.68;77.33
57791;BME280;43621;51.798;21.588;2022-12-31T03:48:54;99835.36;;;3.73;77.19
57791;BME280;43621;51.798;21.588;2022-12-31T03:52:56;99833.89;;;3.82;77.12
57791;BME280;43621;51.798;21.588;2022-12-31T03:56:58;99835.16;;;3.92;76.89
57791;BME280;43621;51.798;21.588;2022-12-31T04:01:00;99830.64;;;3.95;76.88
57791;BME280;43621;51.798;21.588;2022-12-31T04:05:02;99826.64;;;4.01;77.05
57791;BME280;43621;51.798;21.588;2022-12-31T04:09:03;99827.44;;;4.09;76.92
57791;BME280;43621;51.798;21.588;2022-12-31T04:13:05;99827.02;;;4.13;76.66
57791;BME280;43621;51.798;21.588;2022-12-31T04:17:07;99830.71;;;4.15;76.67
57791;BME280;43621;51.798;21.588;2022-12-31T04:21:09;99838.19;;;4.20;76.56
57791;BME280;43621;51.798;21.588;2022-12-31T04:25:11;99835.95;;;4.27;76.57
57791;BME280;43621;51.798;21.588;2022-12-31T04:29:13;99831.63;;;4.32;76.48
57791;BME280;43621;51.798;21.588;2022-12-31T04:33:15;99829.64;;;4.33;76.34
57791;BME280;43621;51.798;21.588;2022-12-31T04:37:17;99830.18;;;4.38;76.32
57791;BME280;43621;51.798;21.588;2022-12-31T04:41:18;99844.34;;;4.48;76.23
57791;BME280;43621;51.798;21.588;2022-12-31T04:45:21;99846.21;;;4.59;76.15
57791;BME280;43621;51.798;21.588;2022-12-31T04:49:23;99848.23;;;4.64;76.08
57791;BME280;43621;51.798;21.588;2022-12-31T04:53:25;99848.84;;;4.68;76.05
57791;BME280;43621;51.798;21.588;2022-12-31T04:57:27;99841.11;;;4.75;75.92
57791;BME280;43621;51.798;21.588;2022-12-31T05:01:29;99837.67;;;4.79;75.78
57791;BME280;43621;51.798;21.588;2022-12-31T05:05:31;99831.16;;;4.81;75.64
57791;BME280;43621;51.798;21.588;2022-12-31T05:09:32;99827.02;;;4.83;75.64
57791;BME280;43621;51.798;21.588;2022-12-31T05:13:34;99838.21;;;4.89;75.55
57791;BME280;43621;51.798;21.588;2022-12-31T05:17:36;99837.83;;;4.95;75.52
57791;BME280;43621;51.798;21.588;2022-12-31T05:21:38;99819.73;;;4.96;75.31
57791;BME280;43621;51.798;21.588;2022-12-31T05:25:41;99821.23;;;4.95;75.30
57791;BME280;43621;51.798;21.588;2022-12-31T05:29:43;99826.70;;;4.98;75.31
57791;BME280;43621;51.798;21.588;2022-12-31T05:33:45;99839.16;;;5.00;75.21
57791;BME280;43621;51.798;21.588;2022-12-31T05:37:47;99831.52;;;5.00;75.16
57791;BME280;43621;51.798;21.588;2022-12-31T05:41:49;99829.98;;;5.05;75.11
57791;BME280;43621;51.798;21.588;2022-12-31T05:45:51;99830.23;;;5.09;75.00
57791;BME280;43621;51.798;21.588;2022-12-31T05:49:53;99830.35;;;5.07;74.79
57791;BME280;43621;51.798;21.588;2022-12-31T05:53:54;99832.73;;;5.03;74.90
57791;BME280;43621;51.798;21.588;2022-12-31T05:57:56;99831.95;;;5.06;74.99
57791;BME280;43621;51.798;21.588;2022-12-31T06:01:58;99831.48;;;5.13;74.85
57791;BME280;43621;51.798;21.588;2022-12-31T06:06:01;99831.73;;;5.14;74.69
57791;BME280;43621;51.798;21.588;2022-12-31T06:10:04;99819.36;;;5.16;74.77
57791;BME280;43621;51.798;21.588;2022-12-31T06:14:06;99822.74;;;5.22;74.76
57791;BME280;43621;51.798;21.588;2022-12-31T06:18:08;99820.41;;;5.25;74.64
57791;BME280;43621;51.798;21.588;2022-12-31T06:22:10;99827.98;;;5.31;74.65
57791;BME280;43621;51.798;21.588;2022-12-31T06:26:12;99822.13;;;5.33;74.50
57791;BME280;43621;51.798;21.588;2022-12-31T06:30:14;99823.98;;;5.38;74.58
57791;BME280;43621;51.798;21.588;2022-12-31T06:34:16;99833.84;;;5.50;74.50
57791;BME280;43621;51.798;21.588;2022-12-31T06:38:17;99828.77;;;5.58;74.41
57791;BME280;43621;51.798;21.588;2022-12-31T06:42:19;99826.10;;;5.62;74.24
57791;BME280;43621;51.798;21.588;2022-12-31T06:46:21;99824.04;;;5.66;74.21
57791;BME280;43621;51.798;21.588;2022-12-31T06:50:23;99825.02;;;5.76;74.09
57791;BME280;43621;51.798;21.588;2022-12-31T06:54:25;99828.12;;;5.83;73.96
57791;BME280;43621;51.798;21.588;2022-12-31T06:58:27;99833.14;;;5.88;73.87
57791;BME280;43621;51.798;21.588;2022-12-31T07:03:06;99849.20;;;5.94;73.78
57791;BME280;43621;51.798;21.588;2022-12-31T07:07:31;99854.86;;;6.01;73.61
57791;BME280;43621;51.798;21.588;2022-12-31T07:20:58;99856.89;;;6.25;73.29
57791;BME280;43621;51.798;21.588;2022-12-31T07:25:00;99861.83;;;6.33;73.10
57791;BME280;43621;51.798;21.588;2022-12-31T07:42:10;99874.82;;;6.67;72.67
57791;BME280;43621;51.798;21.588;2022-12-31T07:46:25;99874.34;;;6.76;72.47
57791;BME280;43621;51.798;21.588;2022-12-31T07:50:29;99875.67;;;6.77;72.23
57791;BME280;43621;51.798;21.588;2022-12-31T07:54:31;99874.46;;;6.79;72.14
57791;BME280;43621;51.798;21.588;2022-12-31T08:03:11;99871.90;;;6.92;71.96
57791;BME280;43621;51.798;21.588;2022-12-31T08:07:44;99877.67;;;6.98;71.90
57791;BME280;43621;51.798;21.588;2022-12-31T08:11:57;99879.33;;;7.14;71.91
57791;BME280;43621;51.798;21.588;2022-12-31T08:16:14;99884.61;;;7.46;71.62
57791;BME280;43621;51.798;21.588;2022-12-31T08:30:09;99867.79;;;7.62;71.27
57791;BME280;43621;51.798;21.588;2022-12-31T08:34:28;99877.83;;;7.63;71.10
57791;BME280;43621;51.798;21.588;2022-12-31T08:47:26;99888.67;;;7.66;70.90
57791;BME280;43621;51.798;21.588;2022-12-31T08:51:32;99891.70;;;7.68;70.94
57791;BME280;43621;51.798;21.588;2022-12-31T08:55:34;99894.77;;;7.73;70.74
57791;BME280;43621;51.798;21.588;2022-12-31T08:59:51;99905.08;;;7.76;70.58
57791;BME280;43621;51.798;21.588;2022-12-31T09:04:09;99903.83;;;7.79;70.67
57791;BME280;43621;51.798;21.588;2022-12-31T09:12:38;99913.39;;;7.79;70.47
57791;BME280;43621;51.798;21.588;2022-12-31T09:20:51;99921.17;;;7.77;70.37
57791;BME280;43621;51.798;21.588;2022-12-31T09:24:53;99915.60;;;7.75;70.38
57791;BME280;43621;51.798;21.588;2022-12-31T09:29:06;99905.02;;;7.75;70.42
57791;BME280;43621;51.798;21.588;2022-12-31T09:33:20;99898.09;;;7.83;70.36
57791;BME280;43621;51.798;21.588;2022-12-31T09:43:09;99891.19;;;8.02;70.29
57791;BME280;43621;51.798;21.588;2022-12-31T10:17:29;99845.67;;;9.22;68.73
57791;BME280;43621;51.798;21.588;2022-12-31T10:30:20;99824.71;;;10.17;68.51
57791;BME280;43621;51.798;21.588;2022-12-31T10:39:07;99794.36;;;14.01;64.37
57791;BME280;43621;51.798;21.588;2022-12-31T11:23:03;99788.28;;;15.72;54.32
57791;BME280;43621;51.798;21.588;2022-12-31T11:27:37;99798.05;;;15.19;55.15
57791;BME280;43621;51.798;21.588;2022-12-31T11:36:22;99778.94;;;13.86;56.15
57791;BME280;43621;51.798;21.588;2022-12-31T11:41:10;99782.32;;;13.28;56.95
57791;BME280;43621;51.798;21.588;2022-12-31T11:45:39;99774.74;;;13.05;57.84
57791;BME280;43621;51.798;21.588;2022-12-31T11:58:37;99752.03;;;12.39;59.24
57791;BME280;43621;51.798;21.588;2022-12-31T12:02:56;99759.48;;;12.18;59.86
57791;BME280;43621;51.798;21.588;2022-12-31T12:06:59;99766.23;;;12.13;60.29
57791;BME280;43621;51.798;21.588;2022-12-31T12:11:05;99772.27;;;12.19;60.66
57791;BME280;43621;51.798;21.588;2022-12-31T12:15:09;99759.80;;;12.25;60.78
57791;BME280;43621;51.798;21.588;2022-12-31T12:19:16;99750.33;;;12.25;60.79
57791;BME280;43621;51.798;21.588;2022-12-31T12:23:24;99743.85;;;12.16;60.90
57791;BME280;43621;51.798;21.588;2022-12-31T12:27:31;99736.70;;;12.04;61.24
57791;BME280;43621;51.798;21.588;2022-12-31T12:31:33;99740.76;;;11.92;61.74
57791;BME280;43621;51.798;21.588;2022-12-31T12:35:35;99745.66;;;11.85;61.89
57791;BME280;43621;51.798;21.588;2022-12-31T12:39:40;99747.08;;;11.72;62.15
57791;BME280;43621;51.798;21.588;2022-12-31T12:43:42;99750.63;;;11.63;62.49
57791;BME280;43621;51.798;21.588;2022-12-31T12:47:46;99747.98;;;11.47;62.91
57791;BME280;43621;51.798;21.588;2022-12-31T12:56:32;99731.41;;;11.33;63.66
57791;BME280;43621;51.798;21.588;2022-12-31T13:00:58;99730.02;;;11.24;63.74
57791;BME280;43621;51.798;21.588;2022-12-31T13:13:51;99717.38;;;11.03;65.24
57791;BME280;43621;51.798;21.588;2022-12-31T13:18:06;99717.19;;;11.03;65.17
57791;BME280;43621;51.798;21.588;2022-12-31T13:26:53;99719.21;;;10.99;65.66
57791;BME280;43621;51.798;21.588;2022-12-31T13:31:02;99730.58;;;11.00;65.77
57791;BME280;43621;51.798;21.588;2022-12-31T13:39:28;99727.81;;;10.98;66.04
57791;BME280;43621;51.798;21.588;2022-12-31T13:47:45;99721.64;;;10.86;66.30
57791;BME280;43621;51.798;21.588;2022-12-31T13:51:51;99723.10;;;10.82;66.67
57791;BME280;43621;51.798;21.588;2022-12-31T13:55:59;99727.42;;;10.79;66.81
57791;BME280;43621;51.798;21.588;2022-12-31T14:00:11;99718.13;;;10.70;66.99
57791;BME280;43621;51.798;21.588;2022-12-31T14:04:26;99712.25;;;10.68;66.98
57791;BME280;43621;51.798;21.588;2022-12-31T14:08:30;99713.91;;;10.65;67.16
57791;BME280;43621;51.798;21.588;2022-12-31T14:13:08;99712.87;;;10.65;67.16
57791;BME280;43621;51.798;21.588;2022-12-31T14:21:33;99725.73;;;10.56;67.60
57791;BME280;43621;51.798;21.588;2022-12-31T14:25:56;99739.81;;;10.51;67.92
57791;BME280;43621;51.798;21.588;2022-12-31T14:30:18;99744.61;;;10.52;68.04
57791;BME280;43621;51.798;21.588;2022-12-31T14:34:48;99742.73;;;10.52;68.11
57791;BME280;43621;51.798;21.588;2022-12-31T14:39:03;99749.61;;;10.55;68.61
57791;BME280;43621;51.798;21.588;2022-12-31T14:43:39;99760.88;;;10.56;68.63
57791;BME280;43621;51.798;21.588;2022-12-31T14:48:12;99765.32;;;10.61;68.68
57791;BME280;43621;51.798;21.588;2022-12-31T14:52:21;99758.55;;;10.64;68.69
57791;BME280;43621;51.798;21.588;2022-12-31T14:56:50;99759.44;;;10.64;68.80
57791;BME280;43621;51.798;21.588;2022-12-31T15:00:55;99753.98;;;10.63;69.09
57791;BME280;43621;51.798;21.588;2022-12-31T15:13:45;99758.16;;;10.70;69.07
57791;BME280;43621;51.798;21.588;2022-12-31T15:26:29;99765.38;;;10.75;69.26
57791;BME280;43621;51.798;21.588;2022-12-31T15:30:47;99766.14;;;10.78;69.39
57791;BME280;43621;51.798;21.588;2022-12-31T15:35:24;99763.66;;;10.78;69.50
57791;BME280;43621;51.798;21.588;2022-12-31T15:43:39;99753.05;;;10.78;69.40
57791;BME280;43621;51.798;21.588;2022-12-31T15:47:47;99752.26;;;10.80;69.68
57791;BME280;43621;51.798;21.588;2022-12-31T15:52:06;99747.38;;;10.80;69.56
57791;BME280;43621;51.798;21.588;2022-12-31T15:56:17;99748.46;;;10.78;69.55
57791;BME280;43621;51.798;21.588;2022-12-31T16:00:21;99745.59;;;10.79;69.48
57791;BME280;43621;51.798;21.588;2022-12-31T16:04:28;99753.33;;;10.82;69.51
57791;BME280;43621;51.798;21.588;2022-12-31T16:08:34;99751.11;;;10.83;69.48
57791;BME280;43621;51.798;21.588;2022-12-31T16:12:37;99745.55;;;10.81;69.69
57791;BME280;43621;51.798;21.588;2022-12-31T16:16:50;99739.91;;;10.80;69.83
57791;BME280;43621;51.798;21.588;2022-12-31T16:20:52;99744.66;;;10.83;70.10
57791;BME280;43621;51.798;21.588;2022-12-31T16:24:56;99749.40;;;10.88;70.26
57791;BME280;43621;51.798;21.588;2022-12-31T16:28:58;99746.77;;;10.92;70.18
57791;BME280;43621;51.798;21.588;2022-12-31T16:33:03;99745.16;;;10.94;70.28
57791;BME280;43621;51.798;21.588;2022-12-31T16:37:14;99749.58;;;11.03;70.41
57791;BME280;43621;51.798;21.588;2022-12-31T16:41:20;99755.26;;;11.14;70.45
57791;BME280;43621;51.798;21.588;2022-12-31T16:45:34;99763.90;;;11.22;70.55
57791;BME280;43621;51.798;21.588;2022-12-31T16:49:37;99771.02;;;11.30;70.57
57791;BME280;43621;51.798;21.588;2022-12-31T16:53:40;99767.48;;;11.37;70.55
57791;BME280;43621;51.798;21.588;2022-12-31T16:57:45;99769.30;;;11.45;70.41
57791;BME280;43621;51.798;21.588;2022-12-31T17:01:48;99773.44;;;11.50;70.27
57791;BME280;43621;51.798;21.588;2022-12-31T17:14:26;99785.27;;;11.63;70.36
57791;BME280;43621;51.798;21.588;2022-12-31T17:18:35;99772.95;;;11.67;70.32
57791;BME280;43621;51.798;21.588;2022-12-31T17:22:43;99774.26;;;11.69;70.34
57791;BME280;43621;51.798;21.588;2022-12-31T17:26:45;99772.78;;;11.74;70.34
57791;BME280;43621;51.798;21.588;2022-12-31T17:30:47;99765.44;;;11.81;70.32
57791;BME280;43621;51.798;21.588;2022-12-31T17:34:50;99767.05;;;11.86;70.14
57791;BME280;43621;51.798;21.588;2022-12-31T17:38:52;99768.02;;;11.89;70.16
57791;BME280;43621;51.798;21.588;2022-12-31T17:42:54;99765.52;;;11.93;70.02
57791;BME280;43621;51.798;21.588;2022-12-31T17:46:56;99768.25;;;11.99;69.93
57791;BME280;43621;51.798;21.588;2022-12-31T17:50:59;99767.30;;;12.03;69.89
57791;BME280;43621;51.798;21.588;2022-12-31T17:55:01;99770.75;;;12.05;70.03
57791;BME280;43621;51.798;21.588;2022-12-31T17:59:03;99773.39;;;12.07;69.88
57791;BME280;43621;51.798;21.588;2022-12-31T18:03:06;99771.92;;;12.14;69.91
57791;BME280;43621;51.798;21.588;2022-12-31T18:07:08;99769.17;;;12.22;69.84
57791;BME280;43621;51.798;21.588;2022-12-31T18:11:15;99767.16;;;12.25;69.71
57791;BME280;43621;51.798;21.588;2022-12-31T18:15:22;99773.84;;;12.28;69.66
57791;BME280;43621;51.798;21.588;2022-12-31T18:19:24;99778.52;;;12.32;69.64
57791;BME280;43621;51.798;21.588;2022-12-31T18:23:37;99782.66;;;12.39;69.47
57791;BME280;43621;51.798;21.588;2022-12-31T18:27:40;99787.13;;;12.41;69.29
57791;BME280;43621;51.798;21.588;2022-12-31T18:31:47;99781.85;;;12.42;69.42
57791;BME280;43621;51.798;21.588;2022-12-31T18:35:50;99784.20;;;12.41;69.26
57791;BME280;43621;51.798;21.588;2022-12-31T18:39:52;99790.79;;;12.43;69.15
57791;BME280;43621;51.798;21.588;2022-12-31T18:43:54;99791.59;;;12.47;69.20
57791;BME280;43621;51.798;21.588;2022-12-31T18:47:56;99792.76;;;12.52;69.23
57791;BME280;43621;51.798;21.588;2022-12-31T18:51:58;99791.38;;;12.53;69.20
57791;BME280;43621;51.798;21.588;2022-12-31T18:56:00;99793.63;;;12.54;69.11
57791;BME280;43621;51.798;21.588;2022-12-31T19:00:02;99794.65;;;12.57;69.08
57791;BME280;43621;51.798;21.588;2022-12-31T19:04:15;99805.41;;;12.61;68.89
57791;BME280;43621;51.798;21.588;2022-12-31T19:08:22;99810.41;;;12.64;68.93
57791;BME280;43621;51.798;21.588;2022-12-31T19:12:24;99802.80;;;12.63;68.95
57791;BME280;43621;51.798;21.588;2022-12-31T19:16:26;99800.30;;;12.62;68.94
57791;BME280;43621;51.798;21.588;2022-12-31T19:20:29;99797.27;;;12.62;68.98
57791;BME280;43621;51.798;21.588;2022-12-31T19:24:31;99800.37;;;12.66;68.89
57791;BME280;43621;51.798;21.588;2022-12-31T19:28:32;99803.34;;;12.70;68.82
57791;BME280;43621;51.798;21.588;2022-12-31T19:32:34;99808.57;;;12.70;68.89
57791;BME280;43621;51.798;21.588;2022-12-31T19:36:37;99812.58;;;12.72;68.83
57791;BME280;43621;51.798;21.588;2022-12-31T19:40:39;99814.61;;;12.77;68.84
57791;BME280;43621;51.798;21.588;2022-12-31T19:44:41;99813.61;;;12.82;68.73
57791;BME280;43621;51.798;21.588;2022-12-31T19:48:44;99821.56;;;12.84;68.63
57791;BME280;43621;51.798;21.588;2022-12-31T19:52:48;99823.77;;;12.84;68.67
57791;BME280;43621;51.798;21.588;2022-12-31T19:56:50;99824.54;;;12.81;68.68
57791;BME280;43621;51.798;21.588;2022-12-31T20:00:54;99830.13;;;12.81;68.48
57791;BME280;43621;51.798;21.588;2022-12-31T20:04:56;99831.58;;;12.83;68.53
57791;BME280;43621;51.798;21.588;2022-12-31T20:08:58;99833.85;;;12.84;68.51
57791;BME280;43621;51.798;21.588;2022-12-31T20:13:00;99829.06;;;12.78;68.40
57791;BME280;43621;51.798;21.588;2022-12-31T20:17:02;99829.41;;;12.68;68.44
57791;BME280;43621;51.798;21.588;2022-12-31T20:21:11;99829.25;;;12.61;68.59
57791;BME280;43621;51.798;21.588;2022-12-31T20:25:14;99823.38;;;12.57;68.53
57791;BME280;43621;51.798;21.588;2022-12-31T20:29:16;99821.98;;;12.50;68.63
57791;BME280;43621;51.798;21.588;2022-12-31T20:33:18;99826.39;;;12.42;68.64
57791;BME280;43621;51.798;21.588;2022-12-31T20:37:19;99827.71;;;12.33;68.75
57791;BME280;43621;51.798;21.588;2022-12-31T20:41:22;99833.01;;;12.29;68.84
57791;BME280;43621;51.798;21.588;2022-12-31T20:45:24;99826.94;;;12.29;68.76
57791;BME280;43621;51.798;21.588;2022-12-31T20:49:25;99825.88;;;12.27;68.82
57791;BME280;43621;51.798;21.588;2022-12-31T20:53:27;99821.03;;;12.23;68.96
57791;BME280;43621;51.798;21.588;2022-12-31T20:57:29;99821.08;;;12.19;69.05
57791;BME280;43621;51.798;21.588;2022-12-31T21:01:31;99818.87;;;12.19;69.29
57791;BME280;43621;51.798;21.588;2022-12-31T21:05:33;99822.10;;;12.22;69.10
57791;BME280;43621;51.798;21.588;2022-12-31T21:09:35;99823.98;;;12.24;69.13
57791;BME280;43621;51.798;21.588;2022-12-31T21:13:36;99830.71;;;12.19;69.10
57791;BME280;43621;51.798;21.588;2022-12-31T21:17:38;99834.81;;;12.13;69.08
57791;BME280;43621;51.798;21.588;2022-12-31T21:21:41;99837.83;;;12.13;69.12
57791;BME280;43621;51.798;21.588;2022-12-31T21:25:43;99838.81;;;12.13;69.24
57791;BME280;43621;51.798;21.588;2022-12-31T21:29:45;99840.14;;;12.11;69.13
57791;BME280;43621;51.798;21.588;2022-12-31T21:33:47;99846.90;;;12.06;69.12
57791;BME280;43621;51.798;21.588;2022-12-31T21:37:49;99855.30;;;12.03;69.48
57791;BME280;43621;51.798;21.588;2022-12-31T21:41:51;99852.60;;;12.02;69.30
57791;BME280;43621;51.798;21.588;2022-12-31T21:46:04;99855.46;;;12.03;69.24
57791;BME280;43621;51.798;21.588;2022-12-31T21:50:07;99862.05;;;12.02;69.21
57791;BME280;43621;51.798;21.588;2022-12-31T21:54:09;99855.00;;;11.97;69.47
57791;BME280;43621;51.798;21.588;2022-12-31T21:58:31;99849.88;;;11.93;69.54
57791;BME280;43621;51.798;21.588;2022-12-31T22:02:33;99852.81;;;11.91;69.36
57791;BME280;43621;51.798;21.588;2022-12-31T22:06:53;99851.66;;;11.90;69.50
57791;BME280;43621;51.798;21.588;2022-12-31T22:10:56;99857.09;;;11.89;69.60
57791;BME280;43621;51.798;21.588;2022-12-31T22:14:58;99860.20;;;11.83;69.54
57791;BME280;43621;51.798;21.588;2022-12-31T22:19:00;99861.80;;;11.79;69.69
57791;BME280;43621;51.798;21.588;2022-12-31T22:23:02;99857.75;;;11.78;69.54
57791;BME280;43621;51.798;21.588;2022-12-31T22:27:04;99852.86;;;11.76;69.56
57791;BME280;43621;51.798;21.588;2022-12-31T22:31:07;99851.86;;;11.70;69.65
57791;BME280;43621;51.798;21.588;2022-12-31T22:35:09;99851.38;;;11.60;69.74
57791;BME280;43621;51.798;21.588;2022-12-31T22:39:15;99849.35;;;11.54;69.76
57791;BME280;43621;51.798;21.588;2022-12-31T22:43:17;99851.05;;;11.51;69.92
57791;BME280;43621;51.798;21.588;2022-12-31T22:47:19;99852.23;;;11.46;69.80
57791;BME280;43621;51.798;21.588;2022-12-31T22:51:21;99856.91;;;11.40;70.06
57791;BME280;43621;51.798;21.588;2022-12-31T22:55:22;99859.93;;;11.37;70.16
57791;BME280;43621;51.798;21.588;2022-12-31T22:59:24;99861.63;;;11.36;69.97
57791;BME280;43621;51.798;21.588;2022-12-31T23:03:26;99867.86;;;11.35;70.22
57791;BME280;43621;51.798;21.588;2022-12-31T23:07:29;99862.83;;;11.33;70.40
57791;BME280;43621;51.798;21.588;2022-12-31T23:11:33;99863.19;;;11.33;70.68
57791;BME280;43621;51.798;21.588;2022-12-31T23:15:35;99858.61;;;11.33;70.61
57791;BME280;43621;51.798;21.588;2022-12-31T23:19:56;99862.53;;;11.32;70.59
57791;BME280;43621;51.798;21.588;2022-12-31T23:24:16;99861.02;;;11.30;70.61
57791;BME280;43621;51.798;21.588;2022-12-31T23:28:23;99867.22;;;11.29;70.78
57791;BME280;43621;51.798;21.588;2022-12-31T23:32:25;99875.89;;;11.32;70.92
57791;BME280;43621;51.798;21.588;2022-12-31T23:36:27;99871.25;;;11.33;70.88
57791;BME280;43621;51.798;21.588;2022-12-31T23:40:29;99857.15;;;11.32;70.83
57791;BME280;43621;51.798;21.588;2022-12-31T23:44:37;99863.21;;;11.29;70.88
57791;BME280;43621;51.798;21.588;2022-12-31T23:48:39;99865.80;;;11.29;71.02
57791;BME280;43621;51.798;21.588;2022-12-31T23:52:40;99859.20;;;11.31;70.93
57791;BME280;43621;51.798;21.588;2022-12-31T23:56:43;99846.58;;;11.29;71.07
